sensor_id;sensor_type;location;lat;lon;timestamp;pressure;altitude;pressure_sealevel;temperature;humidity
69027;BME280;56080;47.594;19.116;2023-02-18T00:04:04;100474;;;13.10;69.90
69027;BME280;56080;47.594;19.116;2023-02-18T00:14:06;100467;;;13.11;69.87
69027;BME280;56080;47.594;19.116;2023-02-18T00:24:06;100453;;;13.13;70.08
69027;BME280;56080;47.594;19.116;2023-02-18T00:34:08;100443;;;13.12;70.26
69027;BME280;56080;47.594;19.116;2023-02-18T00:54:09;100435;;;13.27;69.78
69027;BME280;56080;47.594;19.116;2023-02-18T01:14:11;100423;;;13.42;69.06
69027;BME280;56080;47.594;19.116;2023-02-18T01:24:13;100419;;;13.59;68.07
69027;BME280;56080;47.594;19.116;2023-02-18T01:34:14;100422;;;13.58;67.89
69027;BME280;56080;47.594;19.116;2023-02-18T01:54:17;100409;;;13.62;67.43
69027;BME280;56080;47.594;19.116;2023-02-18T02:04:16;100379;;;13.69;67.29
69027;BME280;56080;47.594;19.116;2023-02-18T02:14:21;100389;;;13.69;67.21
69027;BME280;56080;47.594;19.116;2023-02-18T02:44:22;100405;;;13.71;66.60
69027;BME280;56080;47.594;19.116;2023-02-18T02:54:22;100396;;;13.72;66.46
69027;BME280;56080;47.594;19.116;2023-02-18T03:24:27;100422;;;13.75;66.00
69027;BME280;56080;47.594;19.116;2023-02-18T03:34:28;100402;;;13.84;65.73
69027;BME280;56080;47.594;19.116;2023-02-18T03:44:27;100416;;;13.79;65.87
69027;BME280;56080;47.594;19.116;2023-02-18T03:54:28;100424;;;13.79;65.91
69027;BME280;56080;47.594;19.116;2023-02-18T04:04:28;100437;;;13.86;65.84
69027;BME280;56080;47.594;19.116;2023-02-18T04:14:29;100428;;;13.89;65.93
69027;BME280;56080;47.594;19.116;2023-02-18T04:24:32;100428;;;13.89;65.95
69027;BME280;56080;47.594;19.116;2023-02-18T04:34:33;100434;;;13.80;66.53
69027;BME280;56080;47.594;19.116;2023-02-18T04:44:34;100429;;;13.69;66.99
69027;BME280;56080;47.594;19.116;2023-02-18T04:54:34;100452;;;13.54;67.97
69027;BME280;56080;47.594;19.116;2023-02-18T05:04:34;100473;;;13.33;68.95
69027;BME280;56080;47.594;19.116;2023-02-18T05:14:35;100466;;;13.12;70.18
69027;BME280;56080;47.594;19.116;2023-02-18T05:24:36;100500;;;13.02;70.12
69027;BME280;56080;47.594;19.116;2023-02-18T05:34:37;100514;;;12.87;71.78
69027;BME280;56080;47.594;19.116;2023-02-18T05:44:38;100519;;;12.78;74.64
69027;BME280;56080;47.594;19.116;2023-02-18T05:54:39;100534;;;12.67;76.40
69027;BME280;56080;47.594;19.116;2023-02-18T06:04:40;100561;;;12.48;78.06
69027;BME280;56080;47.594;19.116;2023-02-18T06:14:42;100568;;;12.46;78.18
69027;BME280;56080;47.594;19.116;2023-02-18T06:24:43;100580;;;12.40;78.08
69027;BME280;56080;47.594;19.116;2023-02-18T06:34:45;100572;;;12.33;78.18
69027;BME280;56080;47.594;19.116;2023-02-18T06:44:44;100576;;;12.33;78.18
69027;BME280;56080;47.594;19.116;2023-02-18T06:54:45;100579;;;12.43;77.93
69027;BME280;56080;47.594;19.116;2023-02-18T07:04:46;100578;;;12.61;76.56
69027;BME280;56080;47.594;19.116;2023-02-18T07:14:47;100593;;;12.79;76.32
69027;BME280;56080;47.594;19.116;2023-02-18T07:24:51;100605;;;12.86;77.32
69027;BME280;56080;47.594;19.116;2023-02-18T07:34:51;100598;;;12.84;77.73
69027;BME280;56080;47.594;19.116;2023-02-18T07:54:51;100605;;;12.99;77.04
69027;BME280;56080;47.594;19.116;2023-02-18T08:24:54;100603;;;14.19;71.41
69027;BME280;56080;47.594;19.116;2023-02-18T08:34:55;100591;;;13.78;72.51
69027;BME280;56080;47.594;19.116;2023-02-18T08:44:56;100608;;;13.74;72.79
69027;BME280;56080;47.594;19.116;2023-02-18T08:54:57;100581;;;13.99;71.71
69027;BME280;56080;47.594;19.116;2023-02-18T09:04:59;100589;;;14.75;68.21
69027;BME280;56080;47.594;19.116;2023-02-18T09:14:59;100591;;;14.60;68.15
69027;BME280;56080;47.594;19.116;2023-02-18T09:35:02;100590;;;14.30;68.79
69027;BME280;56080;47.594;19.116;2023-02-18T09:43:43;100571;;;14.68;66.95
69027;BME280;56080;47.594;19.116;2023-02-18T09:45:04;100571;;;14.68;66.95
69027;BME280;56080;47.594;19.116;2023-02-18T09:55:20;100588;;;16.84;60.18
69027;BME280;56080;47.594;19.116;2023-02-18T10:05:04;100580;;;16.42;60.36
69027;BME280;56080;47.594;19.116;2023-02-18T10:15:06;100572;;;15.75;63.03
69027;BME280;56080;47.594;19.116;2023-02-18T10:25:07;100569;;;15.25;64.93
69027;BME280;56080;47.594;19.116;2023-02-18T10:35:26;100584;;;14.76;66.61
69027;BME280;56080;47.594;19.116;2023-02-18T10:45:52;100571;;;14.45;66.61
69027;BME280;56080;47.594;19.116;2023-02-18T11:05:28;100557;;;14.03;70.64
69027;BME280;56080;47.594;19.116;2023-02-18T11:25:30;100534;;;13.61;72.20
69027;BME280;56080;47.594;19.116;2023-02-18T11:35:17;100519;;;13.74;70.83
69027;BME280;56080;47.594;19.116;2023-02-18T11:45:32;100503;;;14.02;70.28
69027;BME280;56080;47.594;19.116;2023-02-18T11:55:18;100489;;;14.26;70.01
69027;BME280;56080;47.594;19.116;2023-02-18T12:05:19;100461;;;14.39;69.04
69027;BME280;56080;47.594;19.116;2023-02-18T12:15:22;100442;;;14.52;69.28
69027;BME280;56080;47.594;19.116;2023-02-18T12:25:38;100429;;;14.67;69.34
69027;BME280;56080;47.594;19.116;2023-02-18T12:35:39;100414;;;15.03;68.62
69027;BME280;56080;47.594;19.116;2023-02-18T13:05:30;100372;;;15.78;62.94
69027;BME280;56080;47.594;19.116;2023-02-18T13:25:27;100339;;;16.08;59.84
69027;BME280;56080;47.594;19.116;2023-02-18T13:45:29;100318;;;16.04;59.45
69027;BME280;56080;47.594;19.116;2023-02-18T13:55:34;100309;;;16.07;58.96
69027;BME280;56080;47.594;19.116;2023-02-18T14:05:38;100283;;;16.04;58.13
69027;BME280;56080;47.594;19.116;2023-02-18T14:25:35;100259;;;15.79;59.34
69027;BME280;56080;47.594;19.116;2023-02-18T14:35:52;100251;;;15.62;60.89
69027;BME280;56080;47.594;19.116;2023-02-18T14:55:38;100224;;;15.72;61.46
69027;BME280;56080;47.594;19.116;2023-02-18T15:05:37;100204;;;15.63;61.99
69027;BME280;56080;47.594;19.116;2023-02-18T15:15:41;100201;;;15.59;62.22
69027;BME280;56080;47.594;19.116;2023-02-18T15:25:45;100190;;;15.50;62.67
69027;BME280;56080;47.594;19.116;2023-02-18T15:35:41;100178;;;15.33;63.66
69027;BME280;56080;47.594;19.116;2023-02-18T15:45:48;100178;;;15.30;64.17
69027;BME280;56080;47.594;19.116;2023-02-18T15:55:45;100161;;;15.17;64.47
69027;BME280;56080;47.594;19.116;2023-02-18T16:05:45;100158;;;14.76;61.94
69027;BME280;56080;47.594;19.116;2023-02-18T16:15:48;100158;;;14.22;60.81
69027;BME280;56080;47.594;19.116;2023-02-18T16:35:51;100144;;;13.57;62.36
69027;BME280;56080;47.594;19.116;2023-02-18T16:45:51;100139;;;13.31;63.30
69027;BME280;56080;47.594;19.116;2023-02-18T16:55:50;100149;;;13.11;63.58
69027;BME280;56080;47.594;19.116;2023-02-18T17:05:50;100159;;;12.95;63.89
69027;BME280;56080;47.594;19.116;2023-02-18T17:15:52;100159;;;12.64;64.69
69027;BME280;56080;47.594;19.116;2023-02-18T17:25:52;100164;;;12.59;64.98
69027;BME280;56080;47.594;19.116;2023-02-18T17:35:56;100157;;;12.57;64.94
69027;BME280;56080;47.594;19.116;2023-02-18T17:45:57;100160;;;12.49;65.37
69027;BME280;56080;47.594;19.116;2023-02-18T17:55:57;100149;;;12.32;66.02
69027;BME280;56080;47.594;19.116;2023-02-18T18:05:56;100157;;;11.95;67.01
69027;BME280;56080;47.594;19.116;2023-02-18T18:16:01;100166;;;11.89;67.42
69027;BME280;56080;47.594;19.116;2023-02-18T18:25:59;100157;;;11.84;67.05
69027;BME280;56080;47.594;19.116;2023-02-18T18:36:00;100148;;;11.79;67.02
69027;BME280;56080;47.594;19.116;2023-02-18T18:46:01;100163;;;11.69;67.46
69027;BME280;56080;47.594;19.116;2023-02-18T18:56:04;100163;;;11.63;67.89
69027;BME280;56080;47.594;19.116;2023-02-18T19:06:01;100165;;;11.35;68.33
69027;BME280;56080;47.594;19.116;2023-02-18T19:16:05;100184;;;11.46;69.02
69027;BME280;56080;47.594;19.116;2023-02-18T19:26:03;100203;;;11.53;69.82
69027;BME280;56080;47.594;19.116;2023-02-18T19:36:04;100204;;;11.47;70.30
69027;BME280;56080;47.594;19.116;2023-02-18T19:46:06;100220;;;11.70;70.56
69027;BME280;56080;47.594;19.116;2023-02-18T19:56:06;100213;;;11.83;69.29
69027;BME280;56080;47.594;19.116;2023-02-18T20:06:16;100202;;;12.37;65.80
69027;BME280;56080;47.594;19.116;2023-02-18T20:16:09;100194;;;12.57;64.72
69027;BME280;56080;47.594;19.116;2023-02-18T20:26:08;100203;;;12.62;64.87
69027;BME280;56080;47.594;19.116;2023-02-18T20:36:09;100201;;;12.57;64.75
69027;BME280;56080;47.594;19.116;2023-02-18T20:46:11;100197;;;12.78;63.49
69027;BME280;56080;47.594;19.116;2023-02-18T20:56:11;100217;;;12.89;62.32
69027;BME280;56080;47.594;19.116;2023-02-18T21:06:14;100208;;;12.96;61.79
69027;BME280;56080;47.594;19.116;2023-02-18T21:16:12;100231;;;13.00;61.71
69027;BME280;56080;47.594;19.116;2023-02-18T21:26:17;100232;;;13.07;61.72
69027;BME280;56080;47.594;19.116;2023-02-18T21:36:16;100234;;;13.18;61.47
69027;BME280;56080;47.594;19.116;2023-02-18T21:46:16;100248;;;13.25;61.30
69027;BME280;56080;47.594;19.116;2023-02-18T21:56:15;100259;;;13.45;60.88
69027;BME280;56080;47.594;19.116;2023-02-18T22:06:17;100264;;;13.52;61.30
69027;BME280;56080;47.594;19.116;2023-02-18T22:16:20;100283;;;13.40;61.81
69027;BME280;56080;47.594;19.116;2023-02-18T22:26:19;100283;;;13.22;62.65
69027;BME280;56080;47.594;19.116;2023-02-18T22:36:20;100263;;;13.06;63.51
69027;BME280;56080;47.594;19.116;2023-02-18T22:46:21;100284;;;12.86;64.45
69027;BME280;56080;47.594;19.116;2023-02-18T22:56:24;100284;;;12.72;64.74
69027;BME280;56080;47.594;19.116;2023-02-18T23:06:23;100282;;;12.66;64.32
69027;BME280;56080;47.594;19.116;2023-02-18T23:16:23;100290;;;12.58;64.39
69027;BME280;56080;47.594;19.116;2023-02-18T23:26:26;100289;;;12.51;64.60
69027;BME280;56080;47.594;19.116;2023-02-18T23:36:26;100284;;;12.44;64.95
69027;BME280;56080;47.594;19.116;2023-02-18T23:46:26;100295;;;12.34;65.08
69027;BME280;56080;47.594;19.116;2023-02-18T23:56:27;100295;;;12.21;66.02
